Mountain Home, ID

2:18 PM MDT on August 28, 2015 (GMT -0600)
NonFedAWOS | | Change Station
CLOSE
Current Station
Personal Weather Station
Location: Mountain Home, ID
Elevation: 3160 ft
Nearby Weather Stations
Active Advisory: Special Statement

Elev 3160 ft 43.13 °N, 115.73 °W | Updated 43 minutes ago

Partly Cloudy
Partly Cloudy
91 °F
Feels Like 87 °F
N
8
Wind Variable Wind from ESE
Gusts 0.0 mph

Today
High -- | Low -- °F
--% Chance of Precip.
Yesterday
High -- | Low -- °F
Precip. -- in
7:02 AM 8:24 PM
Waxing Gibbous, 99% visible
Pressure 29.90 in
Visibility 10.0 miles
Clouds Few 13000 ft
Scattered Clouds 20000 ft
Heat Index 87 °F
Dew Point 39 °F
Humidity 16%
Rainfall in
Snow Depth Not available.
UV 8 out of 12
Pollen 8.70 out of 12
Air Quality Not available.
Flu Activity Not available.
METAR KMUO 281958Z 04004KT 10SM FEW130 SCT200 33/03 A2998 RMK AO2A SLP124 T03300030
Pressure 29.90 in
Visibility 10.0 miles
Clouds Few 13000 ft
Scattered Clouds 20000 ft
Heat Index 87 °F
Dew Point 39 °F
Humidity 16%
Rainfall in
Snow Depth Not available.
UV 8 out of 12
Pollen 8.70 out of 12
Air Quality Not available.
Flu Activity Not available.
METAR KMUO 281958Z 04004KT 10SM FEW130 SCT200 33/03 A2998 RMK AO2A SLP124 T03300030

10-Day Weather Forecast

×

Almanac

Astronomy

Aug. 28, 2015 Rise Set
Actual Time
Civil Twilight
Nautical Twilight
Astronomical Twilight
Moon
Length of Visible Light
Length of Day
Tomorrow will be .
, % of the Moon is Illuminated

Today's Extremes

State Highs State Lows

Community

WunderPhotos

Upload Photos

1,850,468 photos uploaded!

WunderBlogs® & News

Nearby

Air Quality

  Air Quality AQ Index Pollutant
Not available.

Snow Depth

Station Depth Elevation

Earthquake Activity

City Distance Mag. Time & Date
Minimum magnitude displayed is 2.5.

Coastal Water Temperatures

Place Temperature

Stations

Nearby Weather Stations

Station Location Temp. Windchill Dew Point Humidity Wind Precip. Elev Updated Type
                   
Special Statement
Statement as of 3:01 AM PDT on August 28, 2015

... Locally breezy Saturday...

A cold front will bring locally breezy southwest to west winds to
southwest Idaho Saturday. The strongest winds of 20 mph with gusts
to 30 mph are expected Saturday afternoon and evening.



401 am MDT Fri Aug 28 2015 /301 am PDT Fri Aug 28 2015/

... Locally breezy Saturday...

A cold front will bring locally breezy southwest to west winds to
southwest Idaho Saturday. The strongest winds of 20 mph with gusts
to 30 mph are expected Saturday afternoon and evening.